createdAt,value
2018-11-06T00:00:07.728Z,9.27
2018-11-06T00:01:07.963Z,9.28
2018-11-06T00:02:07.690Z,9.32
2018-11-06T00:03:07.927Z,9.27
2018-11-06T00:04:07.925Z,9.28
2018-11-06T00:05:07.642Z,9.25
2018-11-06T00:06:07.611Z,9.3
2018-11-06T00:07:07.871Z,9.3
2018-11-06T00:08:07.583Z,9.3
2018-11-06T00:09:07.635Z,9.27
2018-11-06T00:10:07.548Z,9.27
2018-11-06T00:11:07.266Z,9.27
2018-11-06T00:12:07.510Z,9.31
2018-11-06T00:13:07.501Z,9.35
2018-11-06T00:14:07.477Z,9.3
2018-11-06T00:15:07.730Z,9.34
2018-11-06T00:16:07.186Z,9.35
2018-11-06T00:17:07.423Z,9.34
2018-11-06T00:18:07.407Z,9.4
2018-11-06T00:19:07.391Z,9.42
2018-11-06T00:20:07.649Z,9.38
2018-11-06T00:21:07.557Z,9.4
2018-11-06T00:22:07.347Z,9.4
2018-11-06T00:23:07.320Z,9.39
2018-11-06T00:24:07.575Z,9.4
2018-11-06T00:25:07.565Z,9.35
2018-11-06T00:26:07.537Z,9.4
2018-11-06T00:27:07.528Z,9.38
2018-11-06T00:28:07.247Z,9.39
2018-11-06T00:29:07.490Z,9.39
2018-11-06T00:30:06.952Z,9.38
2018-11-06T00:31:06.919Z,9.43
2018-11-06T00:32:07.443Z,9.48
2018-11-06T00:33:07.154Z,9.4
2018-11-06T00:34:07.270Z,9.39
2018-11-06T00:35:06.853Z,9.4
2018-11-06T00:36:07.371Z,9.43
2018-11-06T00:37:07.098Z,9.45
2018-11-06T00:38:06.798Z,9.49
2018-11-06T00:39:07.056Z,9.45
2018-11-06T00:40:06.773Z,9.42
2018-11-06T00:41:07.282Z,9.46
2018-11-06T00:42:07.005Z,9.52
2018-11-06T00:43:07.259Z,9.58
2018-11-06T00:44:06.969Z,9.57
2018-11-06T00:45:07.221Z,9.58
2018-11-06T00:46:07.192Z,9.57
2018-11-06T00:47:07.171Z,9.6
2018-11-06T00:48:06.896Z,9.57
2018-11-06T00:49:06.613Z,9.57
2018-11-06T00:50:06.866Z,9.64
2018-11-06T00:51:06.596Z,9.58
2018-11-06T00:52:06.826Z,9.67
2018-11-06T00:53:06.807Z,9.63
2018-11-06T00:54:06.795Z,9.67
2018-11-06T00:55:07.040Z,9.63
2018-11-06T00:56:06.760Z,9.6
2018-11-06T00:57:06.751Z,9.75
2018-11-06T00:58:06.721Z,9.66
2018-11-06T00:59:06.450Z,9.63
2018-11-06T01:00:06.436Z,9.6
2018-11-06T01:01:06.676Z,9.66
2018-11-06T01:02:06.668Z,9.75
2018-11-06T01:03:06.907Z,9.76
2018-11-06T01:04:06.364Z,9.71
2018-11-06T01:05:06.927Z,9.73
2018-11-06T01:06:06.590Z,9.66
2018-11-06T01:07:06.571Z,9.75
2018-11-06T01:08:06.811Z,9.63
2018-11-06T01:09:06.799Z,9.73
2018-11-06T01:10:06.798Z,9.64
2018-11-06T01:11:06.776Z,9.63
2018-11-06T01:12:06.484Z,9.6
2018-11-06T01:13:06.466Z,9.71
2018-11-06T01:14:06.729Z,9.66
2018-11-06T01:15:06.173Z,9.73
2018-11-06T01:16:06.410Z,9.64
2018-11-06T01:17:06.398Z,9.67
2018-11-06T01:18:06.115Z,9.58
2018-11-06T01:19:06.631Z,9.61
2018-11-06T01:20:06.621Z,9.57
2018-11-06T01:21:06.337Z,9.63
2018-11-06T01:22:06.591Z,9.61
2018-11-06T01:23:06.046Z,9.6
2018-11-06T01:24:06.540Z,9.57
2018-11-06T01:25:06.271Z,9.61
2018-11-06T01:26:06.242Z,9.67
2018-11-06T01:27:05.966Z,9.66
2018-11-06T01:28:05.956Z,9.66
2018-11-06T01:29:06.205Z,9.57
2018-11-06T01:30:06.175Z,9.58
2018-11-06T01:31:06.156Z,9.53
2018-11-06T01:32:06.423Z,9.6
2018-11-06T01:33:06.159Z,9.53
2018-11-06T01:34:06.383Z,9.52
2018-11-06T01:35:06.360Z,9.45
2018-11-06T01:36:06.075Z,9.43
2018-11-06T01:37:06.056Z,9.49
2018-11-06T01:38:06.312Z,9.38
2018-11-06T01:39:06.292Z,9.4
2018-11-06T01:40:06.020Z,9.46
2018-11-06T01:41:05.987Z,9.32
2018-11-06T01:42:05.980Z,9.3
2018-11-06T01:43:05.975Z,9.28
2018-11-06T01:44:05.945Z,9.32
2018-11-06T01:45:05.671Z,9.3
2018-11-06T01:46:05.642Z,9.24
2018-11-06T01:47:05.899Z,9.16
2018-11-06T01:48:06.150Z,9.13
2018-11-06T01:49:05.853Z,9.13
2018-11-06T01:50:06.092Z,9.04
2018-11-06T01:51:06.091Z,9.06
2018-11-06T01:52:05.538Z,8.94
2018-11-06T01:53:06.045Z,8.97
2018-11-06T01:54:06.031Z,8.94
2018-11-06T01:55:05.759Z,8.94
2018-11-06T01:56:05.731Z,8.94
2018-11-06T01:57:05.717Z,8.84
2018-11-06T01:58:05.697Z,8.78
2018-11-06T01:59:05.957Z,8.84
2018-11-06T02:00:05.662Z,8.81
2018-11-06T02:01:05.911Z,8.79
2018-11-06T02:02:05.900Z,8.84
2018-11-06T02:03:05.872Z,8.76
2018-11-06T02:04:05.333Z,8.72
2018-11-06T02:05:05.836Z,8.73
2018-11-06T02:06:05.819Z,8.76
2018-11-06T02:07:05.538Z,8.73
2018-11-06T02:08:05.520Z,8.65
2018-11-06T02:09:05.505Z,8.58
2018-11-06T02:10:05.483Z,8.68
2018-11-06T02:11:05.468Z,8.54
2018-11-06T02:12:05.183Z,8.51
2018-11-06T02:13:05.700Z,8.53
2018-11-06T02:14:05.420Z,8.54
2018-11-06T02:15:05.404Z,8.48
2018-11-06T02:16:05.116Z,8.48
2018-11-06T02:17:05.633Z,8.45
2018-11-06T02:18:05.610Z,8.42
2018-11-06T02:19:05.350Z,8.35
2018-11-06T02:20:05.310Z,8.36
2018-11-06T02:21:05.243Z,8.32
2018-11-06T02:22:05.538Z,8.32
2018-11-06T02:23:05.538Z,8.35
2018-11-06T02:24:05.506Z,8.32
2018-11-06T02:25:05.225Z,8.32
2018-11-06T02:26:05.461Z,8.3
2018-11-06T02:27:05.195Z,8.32
2018-11-06T02:28:05.429Z,8.29
2018-11-06T02:29:05.412Z,8.25
2018-11-06T02:30:05.412Z,8.21
2018-11-06T02:31:05.139Z,8.17
2018-11-06T02:32:05.099Z,8.22
2018-11-06T02:33:05.341Z,8.2
2018-11-06T02:34:04.798Z,8.26
2018-11-06T02:35:05.042Z,8.2
2018-11-06T02:36:05.336Z,8.21
2018-11-06T02:37:05.289Z,8.14
2018-11-06T02:38:04.997Z,8.21
2018-11-06T02:39:05.243Z,8.17
2018-11-06T02:40:05.223Z,8.22
2018-11-06T02:41:04.963Z,8.18
2018-11-06T02:42:04.932Z,8.11
2018-11-06T02:43:04.641Z,8.18
2018-11-06T02:44:04.884Z,8.14
2018-11-06T02:45:04.871Z,8.14
2018-11-06T02:46:05.110Z,8.2
2018-11-06T02:47:05.094Z,8.12
2018-11-06T02:48:04.811Z,8.12
2018-11-06T02:49:05.075Z,8.11
2018-11-06T02:50:05.059Z,8.14
2018-11-06T02:51:04.503Z,8.07
2018-11-06T02:52:05.284Z,8.15
2018-11-06T02:53:04.849Z,8.04
2018-11-06T02:54:05.044Z,8.11
2018-11-06T02:55:04.961Z,8.07
2018-11-06T02:56:05.123Z,8.02
2018-11-06T02:57:04.990Z,8
2018-11-06T02:58:04.668Z,7.97
2018-11-06T02:59:04.672Z,8.04
2018-11-06T03:00:04.913Z,8.04
2018-11-06T03:01:04.589Z,8.02
2018-11-06T03:02:04.560Z,8.03
2018-11-06T03:03:04.552Z,7.97
2018-11-06T03:04:04.953Z,8.03
2018-11-06T03:05:04.512Z,8.03
2018-11-06T03:06:04.759Z,8.02
2018-11-06T03:07:04.731Z,7.94
2018-11-06T03:08:04.718Z,8.03
2018-11-06T03:09:04.453Z,8
2018-11-06T03:10:04.217Z,7.93
2018-11-06T03:11:04.410Z,7.9
2018-11-06T03:12:04.399Z,7.94
2018-11-06T03:13:04.667Z,7.93
2018-11-06T03:14:04.145Z,7.92
2018-11-06T03:15:04.318Z,7.85
2018-11-06T03:16:04.622Z,7.82
2018-11-06T03:17:04.219Z,7.87
2018-11-06T03:18:18.926Z,7.87
2018-11-06T03:19:04.107Z,7.89
2018-11-06T03:20:04.685Z,7.81
2018-11-06T03:21:04.647Z,7.81
2018-11-06T03:22:04.195Z,7.84
2018-11-06T03:23:04.454Z,7.9
2018-11-06T03:24:04.154Z,7.82
2018-11-06T03:25:03.877Z,7.82
2018-11-06T03:26:04.130Z,7.82
2018-11-06T03:27:04.261Z,7.94
2018-11-06T03:28:04.367Z,7.92
2018-11-06T03:29:04.333Z,7.84
2018-11-06T03:30:04.320Z,7.85
2018-11-06T03:31:04.318Z,7.81
2018-11-06T03:32:04.023Z,7.85
2018-11-06T03:33:03.995Z,7.89
2018-11-06T03:34:04.247Z,7.85
2018-11-06T03:35:03.967Z,7.9
2018-11-06T03:36:04.206Z,7.82
2018-11-06T03:37:04.196Z,7.82
2018-11-06T03:38:03.912Z,7.84
2018-11-06T03:39:03.965Z,7.82
2018-11-06T03:40:03.974Z,7.85
2018-11-06T03:41:04.077Z,7.82
2018-11-06T03:42:04.106Z,7.84
2018-11-06T03:43:03.947Z,7.84
2018-11-06T03:44:03.533Z,7.82
2018-11-06T03:45:04.175Z,7.84
2018-11-06T03:46:03.754Z,7.87
2018-11-06T03:47:03.741Z,7.85
2018-11-06T03:48:03.733Z,7.81
2018-11-06T03:49:03.710Z,7.87
2018-11-06T03:50:03.957Z,7.84
2018-11-06T03:51:03.667Z,7.78
2018-11-06T03:52:03.926Z,7.85
2018-11-06T03:53:03.635Z,7.93
2018-11-06T03:54:03.354Z,7.97
2018-11-06T03:55:03.888Z,7.97
2018-11-06T03:56:03.841Z,7.99
2018-11-06T03:57:03.567Z,7.96
2018-11-06T03:58:03.811Z,8.03
2018-11-06T03:59:03.259Z,8
2018-11-06T04:00:03.780Z,8.04
2018-11-06T04:01:03.743Z,8.08
2018-11-06T04:02:03.466Z,8.03
2018-11-06T04:03:03.714Z,8.1
2018-11-06T04:04:03.437Z,8.07
2018-11-06T04:05:03.138Z,8.04
2018-11-06T04:06:03.126Z,8.02
2018-11-06T04:07:03.375Z,8.02
2018-11-06T04:08:03.361Z,8.03
2018-11-06T04:09:03.338Z,8.02
2018-11-06T04:10:03.322Z,7.93
2018-11-06T04:11:03.050Z,7.94
2018-11-06T04:12:03.548Z,8.04
2018-11-06T04:13:03.267Z,8.04
2018-11-06T04:14:03.514Z,8.02
2018-11-06T04:15:03.229Z,7.92
2018-11-06T04:16:03.486Z,7.85
2018-11-06T04:17:02.927Z,7.89
2018-11-06T04:18:03.181Z,7.84
2018-11-06T04:19:03.157Z,7.85
2018-11-06T04:20:02.868Z,7.89
2018-11-06T04:21:03.320Z,7.82
2018-11-06T04:22:03.362Z,7.84
2018-11-06T04:23:03.096Z,7.85
2018-11-06T04:24:02.803Z,7.89
2018-11-06T04:25:03.052Z,7.89
2018-11-06T04:26:03.293Z,7.87
2018-11-06T04:27:03.010Z,7.82
2018-11-06T04:28:02.990Z,7.85
2018-11-06T04:29:02.974Z,7.84
2018-11-06T04:30:03.223Z,7.89
2018-11-06T04:31:02.669Z,7.82
2018-11-06T04:32:03.189Z,7.82
2018-11-06T04:33:02.898Z,7.82
2018-11-06T04:34:02.610Z,7.81
2018-11-06T04:35:03.131Z,7.82
2018-11-06T04:36:02.588Z,7.81
2018-11-06T04:37:02.827Z,7.84
2018-11-06T04:38:02.802Z,7.82
2018-11-06T04:39:03.060Z,7.85
2018-11-06T04:40:02.772Z,7.82
2018-11-06T04:41:02.758Z,7.85
2018-11-06T04:42:03.005Z,7.89
2018-11-06T04:43:02.717Z,7.9
2018-11-06T04:44:02.966Z,7.82
2018-11-06T04:45:02.412Z,7.81
2018-11-06T04:46:02.937Z,7.78
2018-11-06T04:47:02.906Z,7.75
2018-11-06T04:48:02.359Z,7.79
2018-11-06T04:49:02.613Z,7.79
2018-11-06T04:50:02.852Z,7.74
2018-11-06T04:51:02.834Z,7.81
2018-11-06T04:52:02.551Z,7.84
2018-11-06T04:53:02.535Z,7.78
2018-11-06T04:54:02.512Z,7.82
2018-11-06T04:55:02.778Z,7.89
2018-11-06T04:56:02.747Z,7.84
2018-11-06T04:57:02.734Z,7.85
2018-11-06T04:58:02.705Z,7.9
2018-11-06T04:59:02.430Z,7.89
2018-11-06T05:00:02.422Z,7.85
2018-11-06T05:01:02.117Z,7.82
2018-11-06T05:02:02.176Z,7.89
2018-11-06T05:03:02.619Z,7.81
2018-11-06T05:04:02.330Z,7.9
2018-11-06T05:05:02.316Z,7.85
2018-11-06T05:06:02.564Z,7.85
2018-11-06T05:07:02.606Z,7.85
2018-11-06T05:08:02.527Z,7.89
2018-11-06T05:09:02.498Z,7.85
2018-11-06T05:10:02.491Z,7.82
2018-11-06T05:11:02.470Z,7.87
2018-11-06T05:12:02.185Z,7.84
2018-11-06T05:13:02.168Z,7.92
2018-11-06T05:14:02.470Z,7.85
2018-11-06T05:15:01.863Z,7.89
2018-11-06T05:16:02.381Z,7.84
2018-11-06T05:17:02.094Z,7.84
2018-11-06T05:18:02.073Z,7.74
2018-11-06T05:19:01.791Z,7.79
2018-11-06T05:20:02.309Z,7.79
2018-11-06T05:21:02.025Z,7.75
2018-11-06T05:22:01.738Z,7.75
2018-11-06T05:23:01.717Z,7.71
2018-11-06T05:24:01.965Z,7.75
2018-11-06T05:25:01.951Z,7.74
2018-11-06T05:26:01.934Z,7.77
2018-11-06T05:27:02.175Z,7.67
2018-11-06T05:28:02.161Z,7.66
2018-11-06T05:29:01.886Z,7.77
2018-11-06T05:30:01.861Z,7.71
2018-11-06T05:31:02.098Z,7.69
2018-11-06T05:32:02.077Z,7.69
2018-11-06T05:33:02.536Z,7.67
2018-11-06T05:34:01.788Z,7.6
2018-11-06T05:35:02.451Z,7.6
2018-11-06T05:36:02.009Z,7.63
2018-11-06T05:37:01.730Z,7.63
2018-11-06T05:38:01.972Z,7.63
2018-11-06T05:39:02.005Z,7.74
2018-11-06T05:40:01.681Z,7.66
2018-11-06T05:41:01.387Z,7.69
2018-11-06T05:42:01.640Z,7.71
2018-11-06T05:43:01.892Z,7.62
2018-11-06T05:44:02.187Z,7.71
2018-11-06T05:45:01.584Z,7.67
2018-11-06T05:46:01.823Z,7.63
2018-11-06T05:47:01.801Z,7.79
2018-11-06T05:48:01.795Z,7.66
2018-11-06T05:49:01.503Z,7.74
2018-11-06T05:50:01.495Z,7.74
2018-11-06T05:51:01.751Z,7.69
2018-11-06T05:52:01.455Z,7.63
2018-11-06T05:53:01.548Z,7.66
2018-11-06T05:54:01.417Z,7.69
2018-11-06T05:55:01.400Z,7.69
2018-11-06T05:56:01.647Z,7.74
2018-11-06T05:57:01.371Z,7.72
2018-11-06T05:58:01.607Z,7.75
2018-11-06T05:59:01.594Z,7.78
2018-11-06T06:00:01.581Z,7.79
2018-11-06T06:01:01.288Z,7.77
2018-11-06T06:02:01.261Z,7.77
2018-11-06T06:03:00.989Z,7.71
2018-11-06T06:04:01.496Z,7.69
2018-11-06T06:05:01.219Z,7.71
2018-11-06T06:06:01.195Z,7.77
2018-11-06T06:07:00.909Z,7.74
2018-11-06T06:08:01.417Z,7.75
2018-11-06T06:09:01.136Z,7.74
2018-11-06T06:10:01.119Z,7.77
2018-11-06T06:11:01.550Z,7.72
2018-11-06T06:12:01.090Z,7.75
2018-11-06T06:13:01.332Z,7.79
2018-11-06T06:14:01.313Z,7.72
2018-11-06T06:15:01.039Z,7.74
2018-11-06T06:16:01.281Z,7.81
2018-11-06T06:17:01.324Z,7.81
2018-11-06T06:18:00.969Z,7.81
2018-11-06T06:19:00.693Z,7.77
2018-11-06T06:20:01.202Z,7.81
2018-11-06T06:21:01.121Z,7.75
2018-11-06T06:22:01.161Z,7.71
2018-11-06T06:23:01.157Z,7.72
2018-11-06T06:24:00.871Z,7.85
2018-11-06T06:25:00.595Z,7.81
2018-11-06T06:26:01.116Z,7.81
2018-11-06T06:27:00.807Z,7.79
2018-11-06T06:28:00.811Z,7.85
2018-11-06T06:29:00.778Z,7.79
2018-11-06T06:30:00.495Z,7.71
2018-11-06T06:31:00.474Z,7.77
2018-11-06T06:32:00.717Z,7.77
2018-11-06T06:33:00.989Z,7.72
2018-11-06T06:34:00.415Z,7.77
2018-11-06T06:35:00.415Z,7.77
2018-11-06T06:36:00.954Z,7.72
2018-11-06T06:37:00.636Z,7.74
2018-11-06T06:38:00.621Z,7.69
2018-11-06T06:39:00.325Z,7.69
2018-11-06T06:40:00.675Z,7.69
2018-11-06T06:41:01.114Z,7.72
2018-11-06T06:42:00.533Z,7.74
2018-11-06T06:43:00.247Z,7.79
2018-11-06T06:44:00.239Z,7.87
2018-11-06T06:45:00.486Z,7.81
2018-11-06T06:46:00.465Z,7.82
2018-11-06T06:47:00.718Z,7.78
2018-11-06T06:48:00.692Z,7.87
2018-11-06T06:49:00.141Z,7.85
2018-11-06T06:50:00.389Z,7.75
2018-11-06T06:51:00.631Z,7.82
2018-11-06T06:52:00.621Z,7.84
2018-11-06T06:53:00.596Z,7.85
2018-11-06T06:54:00.907Z,7.79
2018-11-06T06:55:00.571Z,7.9
2018-11-06T06:56:00.544Z,7.82
2018-11-06T06:57:00.298Z,7.85
2018-11-06T06:58:00.512Z,7.92
2018-11-06T06:59:00.226Z,7.96
2018-11-06T07:00:00.200Z,7.94
2018-11-06T07:01:00.446Z,7.94
2018-11-06T07:02:00.175Z,7.87
2018-11-06T07:03:00.413Z,7.97
2018-11-06T07:04:00.126Z,7.94
2018-11-06T07:05:00.387Z,7.94
2018-11-06T07:05:59.828Z,7.96
2018-11-06T07:07:00.076Z,8.04
2018-11-06T07:08:00.321Z,8.02
2018-11-06T07:09:00.303Z,8.02
2018-11-06T07:10:00.028Z,7.96
2018-11-06T07:11:00.006Z,8.02
2018-11-06T07:11:59.981Z,8.03
2018-11-06T07:13:00.314Z,8.03
2018-11-06T07:13:59.947Z,8.07
2018-11-06T07:14:59.933Z,8
2018-11-06T07:15:59.908Z,8.03
2018-11-06T07:16:59.889Z,8.07
2018-11-06T07:17:59.887Z,8.07
2018-11-06T07:18:59.857Z,8.1
2018-11-06T07:20:00.104Z,8.08
2018-11-06T07:20:59.819Z,8.11
2018-11-06T07:21:59.803Z,8.14
2018-11-06T07:23:00.046Z,8.17
2018-11-06T07:23:59.771Z,8.2
2018-11-06T07:24:59.783Z,8.17
2018-11-06T07:25:59.737Z,8.15
2018-11-06T07:26:59.707Z,8.22
2018-11-06T07:27:59.968Z,8.28
2018-11-06T07:28:59.507Z,8.32
2018-11-06T07:29:59.664Z,8.3
2018-11-06T07:30:59.642Z,8.28
2018-11-06T07:31:59.619Z,8.37
2018-11-06T07:32:59.599Z,8.2
2018-11-06T07:33:59.844Z,8.3
2018-11-06T07:35:00.674Z,8.39
2018-11-06T07:36:00.196Z,8.35
2018-11-06T07:36:59.529Z,8.36
2018-11-06T07:37:59.244Z,8.33
2018-11-06T07:38:59.232Z,8.28
2018-11-06T07:39:59.737Z,8.3
2018-11-06T07:41:00.143Z,8.33
2018-11-06T07:41:59.703Z,8.33
2018-11-06T07:42:59.421Z,8.36
2018-11-06T07:43:59.404Z,8.42
2018-11-06T07:44:59.125Z,8.39
2018-11-06T07:45:59.629Z,8.39
2018-11-06T07:46:59.346Z,8.45
2018-11-06T07:47:59.080Z,8.47
2018-11-06T07:48:59.591Z,8.45
2018-11-06T07:49:59.983Z,8.44
2018-11-06T07:50:59.014Z,8.48
2018-11-06T07:51:59.516Z,8.42
2018-11-06T07:52:59.507Z,8.53
2018-11-06T07:53:59.223Z,8.55
2018-11-06T07:54:59.209Z,8.57
2018-11-06T07:55:59.589Z,8.62
2018-11-06T07:56:59.173Z,8.6
2018-11-06T07:57:59.159Z,8.6
2018-11-06T07:58:58.868Z,8.68
2018-11-06T07:59:59.114Z,8.57
2018-11-06T08:00:58.840Z,8.68
2018-11-06T08:01:59.085Z,8.71
2018-11-06T08:02:59.064Z,8.69
2018-11-06T08:03:59.056Z,8.75
2018-11-06T08:04:59.029Z,8.69
2018-11-06T08:05:59.021Z,8.75
2018-11-06T08:06:58.992Z,8.71
2018-11-06T08:07:59.253Z,8.79
2018-11-06T08:08:59.231Z,8.88
2018-11-06T08:09:59.206Z,8.84
2018-11-06T08:10:58.926Z,8.84
2018-11-06T08:11:58.898Z,8.81
2018-11-06T08:12:58.885Z,8.9
2018-11-06T08:13:58.872Z,8.9
2018-11-06T08:14:59.016Z,8.96
2018-11-06T08:15:59.098Z,8.9
2018-11-06T08:16:58.822Z,9.06
2018-11-06T08:17:59.214Z,9.01
2018-11-06T08:18:58.783Z,9.06
2018-11-06T08:19:59.035Z,9.12
2018-11-06T08:20:59.426Z,9.16
2018-11-06T08:21:59.005Z,9.21
2018-11-06T08:22:58.976Z,9.16
2018-11-06T08:23:58.882Z,9.25
2018-11-06T08:24:58.676Z,9.28
2018-11-06T08:25:58.927Z,9.27
2018-11-06T08:26:58.913Z,9.38
2018-11-06T08:27:58.865Z,9.34
2018-11-06T08:28:58.872Z,9.4
2018-11-06T08:29:58.854Z,9.48
2018-11-06T08:30:58.529Z,9.56
2018-11-06T08:32:00.950Z,9.61
2018-11-06T08:32:58.272Z,9.63
2018-11-06T08:33:58.527Z,9.73
2018-11-06T08:34:58.507Z,9.7
2018-11-06T08:35:58.774Z,9.73
2018-11-06T08:36:59.002Z,9.79
2018-11-06T08:37:58.468Z,9.93
2018-11-06T08:38:58.446Z,9.91
2018-11-06T08:39:58.434Z,9.89
2018-11-06T08:40:58.681Z,9.94
2018-11-06T08:41:58.394Z,9.97
2018-11-06T08:42:58.377Z,9.97
2018-11-06T08:43:58.400Z,10.01
2018-11-06T08:44:58.624Z,10.19
2018-11-06T08:45:58.055Z,10.15
2018-11-06T08:46:58.046Z,10.21
2018-11-06T08:47:58.440Z,10.25
2018-11-06T08:48:58.278Z,10.36
2018-11-06T08:49:58.257Z,10.4
2018-11-06T08:50:58.238Z,10.36
2018-11-06T08:51:58.489Z,10.53
2018-11-06T08:52:58.478Z,10.52
2018-11-06T08:53:58.186Z,10.52
2018-11-06T08:54:58.170Z,10.63
2018-11-06T08:55:58.162Z,10.7
2018-11-06T08:56:58.411Z,10.73
2018-11-06T08:57:58.387Z,10.78
2018-11-06T08:58:58.108Z,10.86
2018-11-06T08:59:58.116Z,10.86
2018-11-06T09:00:58.367Z,10.94
2018-11-06T09:01:58.572Z,10.95
2018-11-06T09:02:57.781Z,11.07
2018-11-06T09:03:58.038Z,11.1
2018-11-06T09:04:58.014Z,11.17
2018-11-06T09:05:57.738Z,11.2
2018-11-06T09:06:57.982Z,11.2
2018-11-06T09:07:57.770Z,11.28
2018-11-06T09:08:58.527Z,11.34
2018-11-06T09:09:58.204Z,11.25
2018-11-06T09:10:57.914Z,11.36
2018-11-06T09:11:58.164Z,11.32
2018-11-06T09:12:58.149Z,11.34
2018-11-06T09:13:57.867Z,11.38
2018-11-06T09:14:58.114Z,11.38
2018-11-06T09:15:58.095Z,11.53
2018-11-06T09:16:58.257Z,11.44
2018-11-06T09:17:58.065Z,11.52
2018-11-06T09:18:58.047Z,11.56
2018-11-06T09:19:57.514Z,11.54
2018-11-06T09:20:57.763Z,11.61
2018-11-06T09:21:57.743Z,11.57
2018-11-06T09:22:57.727Z,11.67
2018-11-06T09:23:57.713Z,11.77
2018-11-06T09:24:57.958Z,11.77
2018-11-06T09:25:57.945Z,11.94
2018-11-06T09:26:57.406Z,11.9
2018-11-06T09:27:57.386Z,11.97
2018-11-06T09:28:57.630Z,11.94
2018-11-06T09:29:57.621Z,11.94
2018-11-06T09:30:58.071Z,11.96
2018-11-06T09:31:57.868Z,12.05
2018-11-06T09:32:57.946Z,12.09
2018-11-06T09:33:57.825Z,12.09
2018-11-06T09:34:57.544Z,12.15
2018-11-06T09:35:57.517Z,12.16
2018-11-06T09:36:57.249Z,12.26
2018-11-06T09:37:57.494Z,12.23
2018-11-06T09:38:57.774Z,12.37
2018-11-06T09:39:57.463Z,12.39
2018-11-06T09:40:57.707Z,12.38
2018-11-06T09:41:57.429Z,12.45
2018-11-06T09:42:57.420Z,12.48
2018-11-06T09:43:57.401Z,12.45
2018-11-06T09:44:57.460Z,12.54
2018-11-06T09:45:57.633Z,12.6
2018-11-06T09:46:57.097Z,12.67
2018-11-06T09:47:57.335Z,12.67
2018-11-06T09:48:57.317Z,12.67
2018-11-06T09:49:57.312Z,12.71
2018-11-06T09:50:57.290Z,12.82
2018-11-06T09:51:57.329Z,12.89
2018-11-06T09:52:57.530Z,12.97
2018-11-06T09:53:57.247Z,13.12
2018-11-06T09:54:57.238Z,13.11
2018-11-06T09:55:57.494Z,13.17
2018-11-06T09:56:57.478Z,13.18
2018-11-06T09:57:57.465Z,13.25
2018-11-06T09:58:57.444Z,13.27
2018-11-06T09:59:57.463Z,13.32
2018-11-06T10:00:57.409Z,13.3
2018-11-06T10:01:57.132Z,13.36
2018-11-06T10:02:57.376Z,13.36
2018-11-06T10:03:57.097Z,13.41
2018-11-06T10:04:57.100Z,13.36
2018-11-06T10:05:57.070Z,13.4
2018-11-06T10:06:57.099Z,13.41
2018-11-06T10:07:57.787Z,13.44
2018-11-06T10:08:57.027Z,13.49
2018-11-06T10:09:57.280Z,13.46
2018-11-06T10:10:57.004Z,13.52
2018-11-06T10:11:56.989Z,13.55
2018-11-06T10:12:57.231Z,13.46
2018-11-06T10:13:56.693Z,13.59
2018-11-06T10:14:56.719Z,13.54
2018-11-06T10:15:57.191Z,13.55
2018-11-06T10:16:56.644Z,13.67
2018-11-06T10:17:56.898Z,13.61
2018-11-06T10:18:56.886Z,13.65
2018-11-06T10:19:57.140Z,13.61
2018-11-06T10:20:56.859Z,13.65
2018-11-06T10:21:56.848Z,13.7
2018-11-06T10:22:57.090Z,13.61
2018-11-06T10:23:56.818Z,13.69
2018-11-06T10:24:57.080Z,13.67
2018-11-06T10:25:57.043Z,13.7
2018-11-06T10:26:57.042Z,13.71
2018-11-06T10:27:56.765Z,13.76
2018-11-06T10:28:56.482Z,13.76
2018-11-06T10:29:56.473Z,13.81
2018-11-06T10:30:57.392Z,13.87
2018-11-06T10:31:56.446Z,13.81
2018-11-06T10:32:56.960Z,13.81
2018-11-06T10:33:56.686Z,13.8
2018-11-06T10:34:56.929Z,13.92
2018-11-06T10:35:56.651Z,13.79
2018-11-06T10:36:56.909Z,13.92
2018-11-06T10:37:56.985Z,13.89
2018-11-06T10:38:56.812Z,13.96
2018-11-06T10:39:56.595Z,13.94
2018-11-06T10:40:56.578Z,14.06
2018-11-06T10:41:56.823Z,14.07
2018-11-06T10:42:56.558Z,14.09
2018-11-06T10:43:56.540Z,14.14
2018-11-06T10:44:56.524Z,14.2
2018-11-06T10:45:56.516Z,14.12
2018-11-06T10:46:56.776Z,14.24
2018-11-06T10:47:56.494Z,14.2
2018-11-06T10:48:56.734Z,14.25
2018-11-06T10:49:56.738Z,14.25
2018-11-06T10:50:56.707Z,14.39
2018-11-06T10:51:57.160Z,14.35
2018-11-06T10:52:56.433Z,14.42
2018-11-06T10:53:56.670Z,14.42
2018-11-06T10:54:56.651Z,14.39
2018-11-06T10:55:56.380Z,14.49
2018-11-06T10:56:56.625Z,14.53
2018-11-06T10:57:56.447Z,14.47
2018-11-06T10:58:56.339Z,14.49
2018-11-06T10:59:56.601Z,14.61
2018-11-06T11:00:56.317Z,14.49
2018-11-06T11:01:56.571Z,14.62
2018-11-06T11:02:56.572Z,14.67
2018-11-06T11:03:56.582Z,14.71
2018-11-06T11:04:56.263Z,14.72
2018-11-06T11:05:56.520Z,14.75
2018-11-06T11:06:56.499Z,14.8
2018-11-06T11:07:56.224Z,14.8
2018-11-06T11:08:56.212Z,14.86
2018-11-06T11:09:56.470Z,14.83
2018-11-06T11:10:56.452Z,14.93
2018-11-06T11:11:56.177Z,14.95
2018-11-06T11:12:56.156Z,15.05
2018-11-06T11:13:55.887Z,15.13
2018-11-06T11:14:56.403Z,15.13
2018-11-06T11:15:56.125Z,15.17
2018-11-06T11:16:56.108Z,15.19
2018-11-06T11:17:56.354Z,15.26
2018-11-06T11:18:56.088Z,15.2
2018-11-06T11:19:56.132Z,15.31
2018-11-06T11:20:56.329Z,15.41
2018-11-06T11:21:56.327Z,15.45
2018-11-06T11:22:56.303Z,15.45
2018-11-06T11:23:56.285Z,15.42
2018-11-06T11:24:56.280Z,15.52
2018-11-06T11:25:56.316Z,15.49
2018-11-06T11:26:56.253Z,15.49
2018-11-06T11:27:56.015Z,15.54
2018-11-06T11:28:56.236Z,15.52
2018-11-06T11:29:55.695Z,15.59
2018-11-06T11:30:56.412Z,15.67
2018-11-06T11:31:55.928Z,15.56
2018-11-06T11:32:55.916Z,15.63
2018-11-06T11:33:56.011Z,15.66
2018-11-06T11:34:55.887Z,15.76
2018-11-06T11:35:56.163Z,15.72
2018-11-06T11:36:55.868Z,15.84
2018-11-06T11:37:56.015Z,15.76
2018-11-06T11:38:56.138Z,15.93
2018-11-06T11:39:56.104Z,15.89
2018-11-06T11:40:56.085Z,15.99
2018-11-06T11:41:55.817Z,16.01
2018-11-06T11:42:56.069Z,16.03
2018-11-06T11:43:55.786Z,16.15
2018-11-06T11:44:55.783Z,16.15
2018-11-06T11:45:56.161Z,16.15
2018-11-06T11:46:56.033Z,16.2
2018-11-06T11:47:55.739Z,16.26
2018-11-06T11:48:56.007Z,16.26
2018-11-06T11:49:55.722Z,16.33
2018-11-06T11:50:55.453Z,16.4
2018-11-06T11:51:55.721Z,16.49
2018-11-06T11:52:55.700Z,16.48
2018-11-06T11:53:55.417Z,16.56
2018-11-06T11:54:55.660Z,16.7
2018-11-06T11:55:55.390Z,16.71
2018-11-06T11:56:55.917Z,16.8
2018-11-06T11:57:55.637Z,16.73
2018-11-06T11:58:55.890Z,16.86
2018-11-06T11:59:55.687Z,16.96
2018-11-06T12:00:55.600Z,17.03
2018-11-06T12:01:55.620Z,17.1
2018-11-06T12:02:55.794Z,17.14
2018-11-06T12:03:55.608Z,17.22
2018-11-06T12:04:55.924Z,17.25
2018-11-06T12:05:55.586Z,17.29
2018-11-06T12:06:55.541Z,17.36
2018-11-06T12:07:55.532Z,17.4
2018-11-06T12:08:55.805Z,17.43
2018-11-06T12:09:55.521Z,17.48
2018-11-06T12:10:55.503Z,17.62
2018-11-06T12:11:55.486Z,17.71
2018-11-06T12:12:55.216Z,17.88
2018-11-06T12:13:55.470Z,17.84
2018-11-06T12:14:55.725Z,17.91
2018-11-06T12:15:55.734Z,17.95
2018-11-06T12:16:55.439Z,17.94
2018-11-06T12:17:55.708Z,18.06
2018-11-06T12:18:55.723Z,18.07
2018-11-06T12:19:55.729Z,18.09
2018-11-06T12:20:55.425Z,18.17
2018-11-06T12:21:55.869Z,18.29
2018-11-06T12:22:55.411Z,18.49
2018-11-06T12:23:55.710Z,18.49
2018-11-06T12:24:55.841Z,18.52
2018-11-06T12:25:55.659Z,18.58
2018-11-06T12:26:55.614Z,18.62
2018-11-06T12:27:55.609Z,18.68
2018-11-06T12:28:55.597Z,18.73
2018-11-06T12:29:55.372Z,18.76
2018-11-06T12:30:55.335Z,18.84
2018-11-06T12:31:55.316Z,18.84
2018-11-06T12:32:55.049Z,18.99
2018-11-06T12:33:55.570Z,19.11
2018-11-06T12:34:55.813Z,19.2
2018-11-06T12:35:55.540Z,19.18
2018-11-06T12:36:55.733Z,19.29
2018-11-06T12:37:55.263Z,19.4
2018-11-06T12:38:54.989Z,19.42
2018-11-06T12:39:55.513Z,19.54
2018-11-06T12:40:55.229Z,19.66
2018-11-06T12:41:54.968Z,19.69
2018-11-06T12:42:55.661Z,19.69
2018-11-06T12:43:55.230Z,19.76
2018-11-06T12:44:55.210Z,19.63
2018-11-06T12:45:55.465Z,19.63
2018-11-06T12:46:55.235Z,19.57
2018-11-06T12:47:55.447Z,19.75
2018-11-06T12:48:54.924Z,19.78
2018-11-06T12:49:55.187Z,19.95
2018-11-06T12:50:55.160Z,19.88
2018-11-06T12:51:54.890Z,19.97
2018-11-06T12:52:55.142Z,20.1
2018-11-06T12:53:55.144Z,20.24
2018-11-06T12:54:55.148Z,20.43
2018-11-06T12:55:54.869Z,20.34
2018-11-06T12:56:54.862Z,20.42
2018-11-06T12:57:55.391Z,20.35
2018-11-06T12:58:55.114Z,20.24
2018-11-06T12:59:55.108Z,20.25
2018-11-06T13:00:54.827Z,20.42
2018-11-06T13:01:55.353Z,20.38
2018-11-06T13:02:55.091Z,20.35
2018-11-06T13:03:55.091Z,20.42
2018-11-06T13:04:55.077Z,20.41
2018-11-06T13:05:55.524Z,20.38
2018-11-06T13:06:55.328Z,20.41
2018-11-06T13:07:55.317Z,20.61
2018-11-06T13:08:55.046Z,20.62
2018-11-06T13:09:55.187Z,20.65
2018-11-06T13:10:55.298Z,20.69
2018-11-06T13:11:54.767Z,20.8